Time;durP1;ratioP1;P1;durP2;ratioP2;P2;SDS_P1;SDS_P2;PMS_P1;PMS_P2;Temp;Humidity;BMP_temperature;BMP_pressure;BME280_temperature;BME280_humidity;BME280_pressure;Samples;Min_cycle;Max_cycle;Signal;HPM_P1;HPM_P2
2022/06/22 00:02:04;;;;;;;9.82;8.88;;;;;;;26.73;48.68;98804.22;5048749;28;20087;-85
2022/06/22 00:04:45;;;;;;;11.60;9.60;;;;;;;26.92;48.71;98832.03;5009777;28;1149264;-84
2022/06/22 00:07:41;;;;;;;11.57;9.35;;;;;;;26.92;48.74;98832.84;5049666;28;20041;-85
2022/06/22 00:10:19;;;;;;;10.52;9.43;;;;;;;26.92;48.97;98834.75;5049886;28;20044;-85
2022/06/22 00:12:53;;;;;;;10.90;9.68;;;;;;;26.40;49.50;98771.06;5051449;28;20521;-84
2022/06/22 00:15:21;;;;;;;10.98;9.98;;;;;;;26.72;49.00;98806.13;5049910;28;20448;-86
2022/06/22 00:17:46;;;;;;;10.60;9.10;;;;;;;26.88;49.06;98831.84;5051292;28;20028;-84
2022/06/22 00:20:20;;;;;;;10.52;9.63;;;;;;;26.41;48.76;98751.81;5049970;28;20417;-84
2022/06/22 00:22:54;;;;;;;10.43;9.40;;;;;;;26.95;48.81;98831.44;5049731;28;20028;-84
2022/06/22 00:25:32;;;;;;;13.63;10.30;;;;;;;26.96;49.03;98827.63;5049913;28;20021;-84
2022/06/22 00:28:25;;;;;;;10.77;9.50;;;;;;;26.96;48.98;98827.63;5049744;28;20115;-84
2022/06/22 00:31:12;;;;;;;11.27;8.55;;;;;;;26.55;48.82;98763.44;5051082;28;20024;-85
2022/06/22 00:33:37;;;;;;;9.68;8.60;;;;;;;26.83;48.73;98801.34;5049640;28;20071;-85
2022/06/22 00:36:20;;;;;;;11.35;9.13;;;;;;;27.00;48.40;98827.84;5050887;28;20466;-86
2022/06/22 00:38:45;;;;;;;8.93;8.00;;;;;;;27.02;48.28;98837.28;5050841;28;20417;-85
2022/06/22 00:41:37;;;;;;;8.93;8.02;;;;;;;27.02;48.49;98823.72;5051037;28;20120;-85
2022/06/22 00:44:08;;;;;;;13.23;8.43;;;;;;;26.83;48.44;98791.31;5046638;28;20029;-85
2022/06/22 00:46:33;;;;;;;;;;;;;;;26.88;48.80;98823.72;5049895;28;20060;-85
2022/06/22 00:49:09;;;;;;;8.48;6.88;;;;;;;26.61;48.14;98796.63;5050839;28;20031;-85
2022/06/22 00:51:39;;;;;;;11.55;8.57;;;;;;;26.92;48.17;98800.34;5049547;28;20059;-85
2022/06/22 00:54:09;;;;;;;10.65;8.02;;;;;;;27.05;48.01;98839.38;5049311;28;20112;-85
2022/06/22 00:57:08;;;;;;;12.82;7.95;;;;;;;27.00;48.02;98825.13;5051815;28;20413;-85
2022/06/22 00:59:45;;;;;;;10.25;7.28;;;;;;;26.52;47.92;98745.06;5052710;28;20056;-85
2022/06/22 01:02:26;;;;;;;8.50;7.20;;;;;;;26.96;47.97;98814.06;5054165;28;20037;-85
2022/06/22 01:05:25;;;;;;;8.60;7.65;;;;;;;26.77;47.75;98789.81;5054093;28;20044;-85
2022/06/22 01:08:08;;;;;;;10.38;6.90;;;;;;;26.95;47.73;98826.00;5050891;28;20099;-85
2022/06/22 01:10:53;;;;;;;8.70;6.85;;;;;;;25.98;47.62;98678.19;5052673;28;20030;-86
2022/06/22 01:13:29;;;;;;;10.95;7.28;;;;;;;26.62;47.62;98771.16;5052473;28;20013;-85
2022/06/22 01:16:15;;;;;;;14.90;7.28;;;;;;;26.89;47.62;98811.78;5053813;28;20028;-85
2022/06/22 01:18:46;;;;;;;10.38;7.40;;;;;;;26.77;47.50;98791.72;5053928;28;20087;-86
2022/06/22 01:21:32;;;;;;;8.73;7.13;;;;;;;26.87;47.60;98815.88;5053899;28;20021;-85
2022/06/22 01:24:16;;;;;;;7.95;7.15;;;;;;;26.87;47.72;98824.81;5053965;28;20029;-85
2022/06/22 01:27:00;;;;;;;9.98;7.80;;;;;;;26.90;47.49;98834.25;5052472;28;20029;-85
2022/06/22 01:29:26;;;;;;;8.52;7.55;;;;;;;26.81;47.24;98819.81;5053648;28;20031;-85
2022/06/22 01:32:01;;;;;;;8.40;7.03;;;;;;;26.64;47.44;98814.97;5053592;28;20072;-86
2022/06/22 01:34:41;;;;;;;10.73;7.90;;;;;;;26.07;47.54;98721.59;5052276;28;20036;-85
2022/06/22 01:37:13;;;;;;;13.05;7.53;;;;;;;26.93;47.30;98852.59;5053620;28;20021;-85
2022/06/22 01:39:39;;;;;;;14.13;7.13;;;;;;;26.35;47.23;98765.75;5052083;28;20021;-85
2022/06/22 01:42:36;;;;;;;10.05;6.95;;;;;;;26.29;47.04;98786.66;5051936;28;20031;-85
2022/06/22 01:45:09;;;;;;;8.80;6.72;;;;;;;26.63;47.25;98824.19;5047644;28;20161;-85
2022/06/22 01:47:44;;;;;;;7.93;7.13;;;;;;;26.40;47.20;98792.69;5053356;28;20074;-85
2022/06/22 01:50:25;;;;;;;9.93;6.93;;;;;;;26.82;47.09;98876.38;5053378;28;20075;-85
2022/06/22 01:52:56;;;;;;;10.35;7.07;;;;;;;26.83;47.05;98875.28;5052048;28;20025;-85
2022/06/22 01:55:34;;;;;;;9.10;7.28;;;;;;;26.81;46.87;98866.66;5051615;28;20548;-85
2022/06/22 01:58:19;;;;;;;9.32;6.80;;;;;;;26.45;47.29;98815.06;5053179;28;20067;-85
2022/06/22 02:00:57;;;;;;;9.25;6.75;;;;;;;26.29;47.21;98808.31;5051092;28;20051;-85
2022/06/22 02:03:39;;;;;;;8.80;7.15;;;;;;;26.36;47.16;98808.75;5053160;28;20040;-85
2022/06/22 02:07:44;;;;;;;8.27;6.85;;;;;;;26.76;47.02;98863.25;5052773;28;20045;-85
2022/06/22 02:08:51;;;;;;;7.57;6.85;;;;;;;26.59;47.15;98840.25;5052640;28;20029;-85
2022/06/22 02:11:21;;;;;;;8.82;6.90;;;;;;;26.29;47.32;98794.78;5052873;28;20410;-85
2022/06/22 02:13:57;;;;;;;9.55;6.75;;;;;;;26.20;47.20;98805.47;5052609;28;20021;-85
2022/06/22 02:16:50;;;;;;;11.05;6.80;;;;;;;26.71;47.16;98863.31;5051628;28;20414;-85
2022/06/22 02:19:17;;;;;;;10.73;6.85;;;;;;;26.70;47.28;98854.38;5051421;28;20029;-85
2022/06/22 02:21:46;;;;;;;10.13;7.45;;;;;;;26.15;47.21;98780.44;5051509;28;20031;-85
2022/06/22 02:24:28;;;;;;;8.98;7.15;;;;;;;26.72;47.21;98867.63;5052899;28;20024;-85
2022/06/22 02:26:53;;;;;;;;;;;;;;;26.50;47.55;98852.06;5051814;28;20029;-86
2022/06/22 02:29:25;;;;;;;9.73;7.57;;;;;;;25.89;47.18;98740.28;5052856;28;19909;-85
2022/06/22 02:31:53;;;;;;;10.95;7.70;;;;;;;26.54;47.44;98853.06;5052602;28;20104;-85
2022/06/22 02:34:20;;;;;;;10.65;6.78;;;;;;;25.67;47.58;98742.81;5052460;28;20032;-84
2022/06/22 02:36:49;;;;;;;9.05;6.78;;;;;;;26.45;47.30;98852.97;5052462;28;20076;-85
2022/06/22 02:39:17;;;;;;;12.57;7.22;;;;;;;25.57;47.57;98715.94;5052712;28;20095;-85
2022/06/22 02:44:33;;;;;;;9.18;7.10;;;;;;;26.43;47.47;98865.19;5052709;28;20504;-85
2022/06/22 02:47:14;;;;;;;11.90;6.82;;;;;;;26.40;47.50;98873.91;5052394;28;20043;-85
2022/06/22 02:49:46;;;;;;;9.13;7.55;;;;;;;26.12;47.32;98827.03;5051051;28;20090;-86
2022/06/22 02:52:13;;;;;;;;;;;;;;;26.20;47.69;98870.44;5052537;28;20036;-85
2022/06/22 02:54:50;;;;;;;10.38;7.38;;;;;;;26.30;47.74;98874.88;5050822;28;19991;-85
2022/06/22 02:57:33;;;;;;;9.05;7.68;;;;;;;25.49;47.52;98757.97;5051935;28;20030;-85
2022/06/22 02:59:59;;;;;;;8.45;7.05;;;;;;;26.12;47.36;98845.94;5052079;28;20028;-85
2022/06/22 03:02:25;;;;;;;9.30;7.10;;;;;;;26.31;47.50;98871.06;5052038;28;20421;-85
2022/06/22 03:04:53;;;;;;;10.32;7.57;;;;;;;26.33;47.34;98874.31;5050718;28;20056;-85
2022/06/22 03:07:21;;;;;;;11.98;7.93;;;;;;;25.70;47.27;98774.69;5051677;28;20418;-85
2022/06/22 03:09:48;;;;;;;13.30;7.47;;;;;;;25.80;47.35;98790.75;5051834;28;20029;-85
2022/06/22 03:12:14;;;;;;;9.90;7.30;;;;;;;26.12;47.44;98851.38;5051940;28;20032;-85
2022/06/22 03:14:56;;;;;;;9.50;7.10;;;;;;;26.10;47.43;98851.66;5051834;28;20025;-85
2022/06/22 03:17:28;;;;;;;10.60;7.28;;;;;;;25.70;47.46;98776.59;5050606;28;20058;-85
2022/06/22 03:20:01;;;;;;;10.93;7.60;;;;;;;25.72;47.72;98779.78;5051690;28;20025;-85
2022/06/22 03:22:43;;;;;;;9.50;7.57;;;;;;;25.86;47.69;98800.38;5051729;28;20029;-85
2022/06/22 03:25:18;;;;;;;11.10;7.53;;;;;;;25.60;47.61;98756.69;5051659;28;20017;-85
2022/06/22 03:27:50;;;;;;;9.10;7.25;;;;;;;26.17;47.60;98853.97;5051525;28;20490;-85
2022/06/22 03:30:19;;;;;;;9.65;7.80;;;;;;;26.36;47.69;98876.41;5051228;28;20049;-85
2022/06/22 03:32:52;;;;;;;10.13;7.45;;;;;;;25.65;47.71;98762.06;5051526;28;20029;-85
2022/06/22 03:35:38;;;;;;;10.10;7.47;;;;;;;26.16;47.52;98853.19;5051733;28;20025;-85
2022/06/22 03:38:13;;;;;;;9.90;7.70;;;;;;;25.68;47.73;98776.06;5058049;28;20033;-85
2022/06/22 03:40:53;;;;;;;9.43;7.38;;;;;;;26.06;47.55;98847.16;5059419;28;20125;-85
2022/06/22 03:43:26;;;;;;;9.20;7.07;;;;;;;25.56;47.70;98761.09;5060178;28;20028;-85
2022/06/22 03:46:04;;;;;;;8.57;7.45;;;;;;;26.39;47.54;98897.47;5061473;28;20025;-85
2022/06/22 03:48:38;;;;;;;12.25;7.90;;;;;;;25.65;47.46;98772.88;5059383;28;20036;-85
2022/06/22 03:51:10;;;;;;;13.60;7.88;;;;;;;26.44;47.32;98902.78;5060811;28;20029;-84
2022/06/22 03:53:54;;;;;;;9.88;6.90;;;;;;;26.22;47.37;98873.66;5052088;28;20386;-83
2022/06/22 03:56:24;;;;;;;10.10;7.53;;;;;;;24.56;47.53;98616.44;5050014;28;20029;-83
2022/06/22 03:58:52;;;;;;;10.60;7.38;;;;;;;25.97;47.29;98817.22;5051251;28;20456;-83
2022/06/22 04:01:19;;;;;;;10.20;8.27;;;;;;;26.15;47.60;98857.00;5051224;28;20037;-83
2022/06/22 04:03:45;;;;;;;9.70;7.28;;;;;;;25.82;47.41;98791.25;5051114;28;20063;-84
2022/06/22 04:06:23;;;;;;;8.68;7.35;;;;;;;26.45;47.55;98880.03;5051068;28;20103;-83
2022/06/22 04:08:50;;;;;;;12.68;8.05;;;;;;;25.97;47.24;98807.22;5050074;28;20028;-83
2022/06/22 04:11:35;;;;;;;8.93;7.85;;;;;;;26.13;47.32;98832.13;5051079;28;20556;-83
2022/06/22 04:14:09;;;;;;;9.77;7.55;;;;;;;26.69;47.21;98908.84;5051239;28;20036;-83
2022/06/22 04:16:38;;;;;;;10.60;7.65;;;;;;;26.75;47.07;98900.34;5049809;28;20029;-83
2022/06/22 04:19:20;;;;;;;11.07;7.95;;;;;;;26.33;47.20;98822.88;5049978;28;20091;-83
2022/06/22 04:21:50;;;;;;;11.05;7.60;;;;;;;26.60;47.26;98876.25;5050892;28;20481;-85
2022/06/22 04:24:33;;;;;;;9.10;7.50;;;;;;;26.72;47.01;98881.97;5050755;28;20525;-84
2022/06/22 04:27:18;;;;;;;10.38;7.03;;;;;;;26.79;46.98;98893.25;5050860;28;20029;-86
2022/06/22 04:29:51;;;;;;;10.60;7.93;;;;;;;26.50;46.84;98860.19;5050722;28;20031;-83
2022/06/22 04:32:35;;;;;;;10.95;7.60;;;;;;;26.23;47.20;98804.09;5054936;28;20553;-84
2022/06/22 04:35:22;;;;;;;10.07;8.60;;;;;;;26.91;47.12;98915.22;5053462;28;20555;-83
2022/06/22 04:37:54;;;;;;;11.52;8.00;;;;;;;26.79;47.36;98898.66;5054507;28;20563;-84
2022/06/22 04:40:41;;;;;;;13.82;8.23;;;;;;;26.81;47.14;98907.28;5054387;28;20025;-84
2022/06/22 04:43:09;;;;;;;12.45;8.30;;;;;;;26.66;47.40;98895.91;5052894;28;20029;-83
2022/06/22 04:45:38;;;;;;;10.20;7.75;;;;;;;26.63;47.10;98888.38;5053120;28;20021;-83
2022/06/22 04:48:10;;;;;;;14.18;7.63;;;;;;;26.42;47.32;98837.31;5052704;28;20033;-83
2022/06/22 04:50:39;;;;;;;11.88;7.45;;;;;;;26.69;47.54;98893.41;5053980;28;20059;-85
2022/06/22 04:53:14;;;;;;;10.05;7.80;;;;;;;26.81;47.42;98911.91;5054123;28;20100;-85
2022/06/22 04:55:41;;;;;;;11.70;8.35;;;;;;;26.57;47.52;98874.13;5054105;28;20025;-85
2022/06/22 04:58:30;;;;;;;9.45;8.10;;;;;;;26.40;47.46;98836.81;5054059;28;20418;-85
2022/06/22 05:00:57;;;;;;;10.95;7.88;;;;;;;26.53;47.26;98865.81;5053857;28;20060;-85
2022/06/22 05:03:22;;;;;;;11.00;7.85;;;;;;;26.40;47.08;98831.41;5054336;28;20095;-85
2022/06/22 05:05:48;;;;;;;12.85;8.20;;;;;;;27.16;47.19;98942.94;5052799;28;20493;-85
2022/06/22 05:08:23;;;;;;;9.15;8.25;;;;;;;26.89;47.34;98881.41;5052841;28;20091;-85
2022/06/22 05:10:54;;;;;;;9.82;8.57;;;;;;;26.51;47.05;98829.31;5052645;28;20025;-85
2022/06/22 05:13:28;;;;;;;10.32;8.15;;;;;;;27.27;47.19;98933.50;5052728;28;20036;-85
2022/06/22 05:15:58;;;;;;;10.70;8.07;;;;;;;27.03;47.13;98909.34;5052574;28;20410;-85
2022/06/22 05:18:27;;;;;;;9.98;8.30;;;;;;;27.06;47.04;98908.72;5054033;28;20032;-85
2022/06/22 05:21:10;;;;;;;9.77;7.78;;;;;;;27.43;46.88;98937.50;5040781;28;20034;-84
2022/06/22 05:23:35;;;;;;;10.18;8.23;;;;;;;27.11;46.75;98881.53;5048488;28;20049;-84
2022/06/22 05:26:06;;;;;;;9.15;8.00;;;;;;;27.49;46.47;98930.06;5050081;28;20112;-84
2022/06/22 05:28:35;;;;;;;9.40;8.47;;;;;;;27.52;47.03;98927.56;5032557;28;20068;-83
2022/06/22 05:31:29;;;;;;;11.35;8.15;;;;;;;27.50;46.59;98929.00;5050923;28;20295;-84
2022/06/22 05:34:01;;;;;;;8.98;7.95;;;;;;;27.08;46.32;98852.31;5053577;28;20129;-84
2022/06/22 05:36:29;;;;;;;11.73;8.50;;;;;;;27.66;46.25;98951.19;5053542;28;20516;-84
2022/06/22 05:38:57;;;;;;;10.20;9.23;;;;;;;27.16;46.43;98857.03;5045513;28;20037;-83
2022/06/22 05:41:29;;;;;;;11.80;8.55;;;;;;;27.69;46.15;98937.00;5042377;28;20036;-84
2022/06/22 05:44:00;;;;;;;11.10;8.20;;;;;;;27.38;46.10;98896.16;5040493;28;20030;-84
2022/06/22 05:46:26;;;;;;;;;;;;;;;27.51;46.41;98936.00;5033911;28;20100;-84
2022/06/22 05:48:55;;;;;;;8.93;8.02;;;;;;;27.10;46.20;98873.69;5041422;28;20449;-83
2022/06/22 05:51:41;;;;;;;12.48;8.77;;;;;;;27.19;46.41;98858.31;5039270;28;20033;-84
2022/06/22 05:54:20;;;;;;;11.02;8.40;;;;;;;27.75;46.15;98946.66;5036817;28;20059;-84
2022/06/22 05:57:00;;;;;;;10.93;8.32;;;;;;;27.83;45.70;98962.19;5048364;28;20025;-83
2022/06/22 05:59:31;;;;;;;9.93;8.18;;;;;;;27.82;45.79;98961.38;5073033;28;20031;-84
2022/06/22 06:02:01;;;;;;;;;;;;;;;27.68;46.11;98957.09;5052599;28;20500;-83
2022/06/22 06:04:42;;;;;;;10.82;8.60;;;;;;;27.80;46.09;98958.19;5037531;28;19916;-83
2022/06/22 06:07:33;;;;;;;11.80;9.00;;;;;;;26.96;46.13;98857.41;5048815;28;20030;-83
2022/06/22 06:10:01;;;;;;;13.98;8.95;;;;;;;27.60;46.18;98923.34;5029927;28;20113;-83
2022/06/22 06:12:39;;;;;;;11.77;8.88;;;;;;;27.23;45.91;98846.56;5031556;28;20031;-83
2022/06/22 06:15:06;;;;;;;11.85;8.23;;;;;;;27.52;45.33;98884.19;5050203;28;20493;-83
2022/06/22 06:17:41;;;;;;;11.80;9.23;;;;;;;27.92;45.31;98946.78;5051269;28;20036;-83
2022/06/22 06:20:17;;;;;;;11.32;8.70;;;;;;;28.01;45.21;98941.44;5052286;28;20098;-83
2022/06/22 06:22:43;;;;;;;12.20;9.23;;;;;;;27.26;45.37;98837.03;5052413;28;20029;-84
2022/06/22 06:28:10;;;;;;;16.08;14.48;;;;;;;27.46;44.94;98814.88;5032924;28;20036;-82
2022/06/22 06:30:43;;;;;;;10.60;8.63;;;;;;;27.72;44.82;98855.03;5037512;28;20107;-82
2022/06/22 06:33:23;;;;;;;13.65;9.25;;;;;;;28.35;44.85;98935.50;5049785;28;20056;-82
2022/06/22 06:35:55;;;;;;;11.48;9.40;;;;;;;28.23;44.24;98925.19;5052003;28;20033;-82
2022/06/22 06:38:35;;;;;;;10.93;9.68;;;;;;;28.37;44.34;98933.28;5049010;28;20094;-82
2022/06/22 06:41:20;;;;;;;11.88;8.32;;;;;;;28.46;44.62;98942.28;5050897;28;20040;-83
2022/06/22 06:44:02;;;;;;;11.68;9.10;;;;;;;28.16;44.37;98898.44;5038679;28;20457;-83
2022/06/22 06:46:38;;;;;;;11.70;9.27;;;;;;;28.16;44.22;98871.31;5034210;28;20079;-83
2022/06/22 06:49:14;;;;;;;11.85;9.77;;;;;;;28.63;44.37;98930.72;5040922;28;20025;-83
2022/06/22 06:51:47;;;;;;;11.98;9.20;;;;;;;28.61;44.02;98922.88;5040814;28;20124;-83
2022/06/22 06:54:31;;;;;;;10.57;9.45;;;;;;;28.77;44.20;98926.81;5037003;28;20508;-83
2022/06/22 06:57:07;;;;;;;15.00;10.50;;;;;;;28.52;43.93;98900.31;5059561;28;20032;-84
2022/06/22 06:59:34;;;;;;;12.50;9.20;;;;;;;28.38;44.03;98867.00;5047417;28;20098;-84
2022/06/22 07:02:05;;;;;;;15.73;10.30;;;;;;;28.93;43.81;98940.00;5060816;28;20399;-83
2022/06/22 07:04:32;;;;;;;;;;;;;;;28.80;44.45;98928.09;5042804;28;20053;-84
2022/06/22 07:07:07;;;;;;;11.90;9.75;;;;;;;28.88;43.78;98921.13;5034818;28;19999;-83
2022/06/22 07:09:37;;;;;;;17.02;11.82;;;;;;;29.05;44.16;98926.66;5032993;28;20445;-84
2022/06/22 07:12:30;;;;;;;16.20;12.13;;;;;;;29.10;43.52;98926.50;5047930;28;20503;-83
2022/06/22 07:15:00;;;;;;;14.93;11.50;;;;;;;28.96;43.54;98891.25;5034372;28;20033;-85
2022/06/22 07:17:28;;;;;;;12.90;11.15;;;;;;;29.05;43.18;98894.03;5030180;28;20053;-85
2022/06/22 07:20:16;;;;;;;14.32;10.40;;;;;;;29.21;43.37;98908.78;5031122;28;20064;-85
2022/06/22 07:23:01;;;;;;;11.63;10.13;;;;;;;29.16;42.89;98897.25;5042670;28;20055;-84
2022/06/22 07:25:36;;;;;;;12.45;10.15;;;;;;;29.46;43.05;98928.22;5041625;28;20071;-84
2022/06/22 07:28:08;;;;;;;13.27;11.00;;;;;;;29.33;42.86;98900.81;5040295;28;20548;-84
2022/06/22 07:30:51;;;;;;;12.57;10.73;;;;;;;29.51;42.98;98920.72;5031739;28;20044;-84
2022/06/22 07:33:41;;;;;;;15.32;10.82;;;;;;;29.56;42.45;98917.84;5035376;28;20486;-84
2022/06/22 07:36:36;;;;;;;12.00;10.30;;;;;;;29.17;42.34;98844.50;5029196;28;20098;-85
2022/06/22 07:39:36;;;;;;;14.27;10.75;;;;;;;29.74;42.11;98918.69;5028622;28;20370;-83
2022/06/22 07:42:02;;;;;;;14.45;11.13;;;;;;;29.58;41.73;98902.00;5031264;28;20060;-84
2022/06/22 07:44:33;;;;;;;14.27;11.07;;;;;;;29.18;41.95;98829.78;5029291;28;20053;-84
2022/06/22 07:47:08;;;;;;;15.10;12.35;;;;;;;29.74;41.55;98905.06;5045733;28;20037;-84
2022/06/22 07:49:45;;;;;;;13.70;12.30;;;;;;;29.98;41.34;98935.34;5036929;28;20120;-83
2022/06/22 07:52:14;;;;;;;17.15;11.80;;;;;;;30.00;41.62;98930.38;5044882;28;20028;-84
2022/06/22 07:54:45;;;;;;;15.23;12.02;;;;;;;29.63;41.52;98884.72;5037199;28;20103;-85
2022/06/22 07:57:39;;;;;;;15.35;11.40;;;;;;;30.04;41.44;98925.91;5038973;28;20025;-84
2022/06/22 08:00:14;;;;;;;14.15;11.63;;;;;;;29.65;40.96;98872.41;5030339;28;20091;-85
2022/06/22 08:02:43;;;;;;;17.48;12.77;;;;;;;30.16;41.07;98938.88;5045060;28;20346;-85
2022/06/22 08:05:14;;;;;;;12.57;11.38;;;;;;;29.58;40.92;98844.06;5049687;28;20106;-86
2022/06/22 08:08:05;;;;;;;13.73;12.32;;;;;;;30.24;40.86;98938.06;5045454;28;20017;-86
2022/06/22 08:10:34;;;;;;;;;;;;;;;30.11;41.33;98939.03;5034291;28;20027;-86
2022/06/22 08:13:02;;;;;;;14.40;12.18;;;;;;;30.29;40.80;98946.06;5044645;28;19912;-86
2022/06/22 08:15:33;;;;;;;14.05;12.20;;;;;;;30.06;39.93;98884.75;5035296;28;20160;-86
2022/06/22 08:18:00;;;;;;;;;;;;;;;30.41;39.73;98936.44;5033768;28;20409;-86
2022/06/22 08:20:39;;;;;;;14.02;11.75;;;;;;;30.62;39.69;98935.47;5033476;28;19916;-86
2022/06/22 08:23:09;;;;;;;15.98;12.25;;;;;;;30.03;39.04;98839.13;5039991;28;20020;-86
2022/06/22 08:25:36;;;;;;;14.98;12.07;;;;;;;30.14;38.94;98848.53;5046100;28;20049;-86
2022/06/22 08:28:03;;;;;;;13.90;12.60;;;;;;;29.97;38.75;98789.47;5042211;28;20028;-85
2022/06/22 08:30:30;;;;;;;14.48;11.70;;;;;;;30.53;38.28;98899.25;5060607;28;20025;-86
2022/06/22 08:33:04;;;;;;;12.45;11.23;;;;;;;30.27;37.80;98884.88;5053258;28;20025;-85
2022/06/22 08:35:52;;;;;;;16.90;12.73;;;;;;;30.85;38.49;98946.16;5056521;28;20024;-86
2022/06/22 08:38:29;;;;;;;13.57;12.35;;;;;;;31.06;38.03;98952.47;5035370;28;20486;-86
2022/06/22 08:41:15;;;;;;;15.00;12.13;;;;;;;31.11;37.98;98952.28;5051633;28;20040;-86
2022/06/22 08:44:07;;;;;;;14.27;12.20;;;;;;;30.96;37.08;98907.28;5051082;28;20025;-86
2022/06/22 08:46:50;;;;;;;14.68;13.35;;;;;;;31.35;36.87;98951.75;5034423;28;20069;-86
2022/06/22 08:49:21;;;;;;;14.63;12.55;;;;;;;31.38;36.25;98958.47;5048190;28;20409;-85
2022/06/22 08:52:05;;;;;;;15.35;12.45;;;;;;;31.39;36.42;98941.78;5037100;28;20026;-85
2022/06/22 08:54:37;;;;;;;14.63;13.10;;;;;;;31.34;35.85;98950.16;5050331;28;20017;-86
2022/06/22 08:57:25;;;;;;;14.35;12.68;;;;;;;31.39;36.16;98944.50;5053890;28;20037;-85
2022/06/22 09:00:17;;;;;;;17.65;12.50;;;;;;;31.17;35.80;98912.03;5042180;28;20021;-85
2022/06/22 09:03:15;;;;;;;16.52;14.00;;;;;;;31.37;35.98;98949.50;5043933;28;20572;-86
2022/06/22 09:06:04;;;;;;;15.30;13.75;;;;;;;31.09;36.36;98894.56;5050603;28;20434;-85
2022/06/22 09:08:46;;;;;;;15.70;13.63;;;;;;;31.29;36.36;98906.69;5032692;28;20541;-85
2022/06/22 09:11:31;;;;;;;14.65;12.57;;;;;;;31.77;36.25;98949.88;5032546;28;20080;-86
2022/06/22 09:14:27;;;;;;;17.10;12.80;;;;;;;31.81;35.35;98928.19;5034368;28;20541;-86
2022/06/22 09:17:13;;;;;;;18.08;13.65;;;;;;;32.02;35.65;98934.47;5045796;28;20057;-86
2022/06/22 09:19:54;;;;;;;16.52;13.85;;;;;;;32.29;35.78;98927.66;5053709;28;20025;-86
2022/06/22 09:22:35;;;;;;;15.50;13.40;;;;;;;32.18;35.90;98913.59;5045794;28;20106;-85
2022/06/22 09:25:07;;;;;;;15.63;12.82;;;;;;;32.09;35.72;98910.13;5044026;28;20090;-85
2022/06/22 09:27:43;;;;;;;19.63;13.05;;;;;;;32.37;35.47;98896.72;5036489;28;20045;-85
2022/06/22 09:30:39;;;;;;;16.45;12.57;;;;;;;32.72;35.34;98893.59;5052409;28;20133;-84
2022/06/22 09:33:22;;;;;;;14.32;12.88;;;;;;;32.84;34.72;98910.84;5041345;28;20437;-85
2022/06/22 09:36:04;;;;;;;16.90;13.25;;;;;;;32.92;34.41;98906.41;5032740;28;20128;-85
2022/06/22 09:38:29;;;;;;;15.75;14.05;;;;;;;33.00;34.56;98888.28;5032250;28;20025;-85
2022/06/22 09:41:13;;;;;;;14.68;13.15;;;;;;;33.20;34.18;98883.84;5041982;28;20041;-85
2022/06/22 09:43:49;;;;;;;15.27;13.60;;;;;;;33.44;34.10;98890.13;5047776;28;20056;-85
2022/06/22 09:46:37;;;;;;;16.00;14.13;;;;;;;33.43;34.39;98891.22;5034626;28;20580;-86
2022/06/22 09:49:27;;;;;;;19.55;13.65;;;;;;;33.67;33.80;98889.59;5049545;28;20035;-86
2022/06/22 09:52:11;;;;;;;14.32;12.88;;;;;;;33.96;33.61;98883.81;5033210;28;20031;-86
2022/06/22 09:58:03;;;;;;;14.57;12.02;;;;;;;34.07;33.24;98884.13;5031447;28;20060;-85
2022/06/22 10:00:35;;;;;;;16.13;13.02;;;;;;;34.09;32.90;98888.09;5018997;28;20458;-86
2022/06/22 10:03:35;;;;;;;13.50;12.18;;;;;;;33.99;32.98;98894.06;5013476;28;20036;-86
2022/06/22 10:06:21;;;;;;;15.57;12.50;;;;;;;33.26;32.86;98792.97;5012562;28;20125;-85
2022/06/22 10:09:03;;;;;;;14.68;12.98;;;;;;;34.07;32.67;98876.69;5021272;28;20026;-86
2022/06/22 10:11:51;;;;;;;13.77;12.15;;;;;;;34.32;32.53;98877.41;5009476;28;20038;-85
2022/06/22 10:14:32;;;;;;;13.63;11.13;;;;;;;34.53;31.88;98876.38;5011026;28;20033;-85
2022/06/22 10:17:24;;;;;;;11.80;10.38;;;;;;;34.23;31.42;98810.97;5021913;28;20112;-86
2022/06/22 10:20:26;;;;;;;15.55;10.73;;;;;;;34.39;31.59;98882.28;5011281;28;20056;-86
2022/06/22 10:23:10;;;;;;;15.32;11.43;;;;;;;34.28;31.53;98870.22;5012955;28;20406;-85
2022/06/22 10:25:38;;;;;;;14.45;11.25;;;;;;;34.15;31.39;98877.69;5026323;28;20028;-85
2022/06/22 10:28:41;;;;;;;17.02;11.95;;;;;;;33.99;31.62;98827.53;5015073;28;20018;-85
2022/06/22 10:31:30;;;;;;;15.90;13.57;;;;;;;33.94;31.58;98801.19;5020831;28;20034;-84
2022/06/22 10:34:19;;;;;;;13.77;11.90;;;;;;;34.30;31.26;98873.41;5020757;28;20167;-85
2022/06/22 10:36:55;;;;;;;14.35;12.00;;;;;;;34.09;31.09;98838.78;5015847;28;20167;-87
2022/06/22 10:39:39;;;;;;;13.77;11.02;;;;;;;34.44;31.25;98875.75;5030930;28;20029;-85
2022/06/22 10:45:49;;;;;;;15.05;11.13;;;;;;;34.93;30.73;98851.50;5028440;28;20599;-85
2022/06/22 10:48:27;;;;;;;12.25;11.05;;;;;;;35.02;30.52;98844.72;5010288;28;20511;-85
2022/06/22 10:51:04;;;;;;;13.25;10.57;;;;;;;35.30;30.17;98868.44;5019496;28;20452;-85
2022/06/22 10:53:49;;;;;;;15.82;10.82;;;;;;;35.44;29.75;98866.03;5032416;28;20344;-85
2022/06/22 10:56:31;;;;;;;14.50;11.02;;;;;;;34.45;29.86;98773.97;5048085;28;20546;-85
2022/06/22 10:59:05;;;;;;;11.18;10.07;;;;;;;34.80;30.71;98875.47;5050818;28;20052;-86
2022/06/22 11:02:08;;;;;;;13.93;12.10;;;;;;;34.51;30.70;98881.41;5049650;28;20078;-85
2022/06/22 11:05:10;;;;;;;12.98;11.65;;;;;;;34.35;30.78;98873.16;5016974;28;20545;-85
2022/06/22 11:07:42;;;;;;;12.25;11.00;;;;;;;34.01;31.44;98869.88;5022048;28;20030;-84
2022/06/22 11:10:49;;;;;;;14.93;12.20;;;;;;;33.44;31.78;98829.91;5010639;28;20137;-85
2022/06/22 11:13:40;;;;;;;12.75;11.32;;;;;;;33.53;31.72;98859.06;5026769;28;20516;-84
2022/06/22 11:16:35;;;;;;;16.23;12.15;;;;;;;33.36;32.05;98868.31;5017793;28;20030;-84
2022/06/22 11:19:30;;;;;;;16.25;11.43;;;;;;;33.27;32.30;98867.63;5019865;28;20104;-84
2022/06/22 11:22:18;;;;;;;12.82;11.52;;;;;;;33.13;32.91;98871.53;5025217;28;20028;-85
2022/06/22 11:25:14;;;;;;;12.80;10.57;;;;;;;33.08;32.97;98860.03;5012003;28;20026;-84
2022/06/22 11:31:05;;;;;;;16.98;11.93;;;;;;;32.89;33.23;98877.00;5014370;28;20065;-85
2022/06/22 11:33:45;;;;;;;12.07;10.85;;;;;;;32.72;33.59;98872.53;5026857;28;20121;-83
2022/06/22 11:36:24;;;;;;;14.80;11.43;;;;;;;32.62;33.80;98864.75;5019310;28;20111;-85
2022/06/22 11:39:09;;;;;;;15.82;12.30;;;;;;;32.59;34.27;98873.63;5028017;28;20039;-85
2022/06/22 11:41:49;;;;;;;12.95;11.00;;;;;;;32.31;34.56;98826.22;5013918;28;20029;-85
2022/06/22 11:47:47;;;;;;;14.02;11.15;;;;;;;32.40;35.21;98838.66;5017945;28;20071;-84
2022/06/22 11:50:25;;;;;;;15.05;12.52;;;;;;;31.91;36.34;98772.16;5024438;28;20036;-85
2022/06/22 11:52:50;;;;;;;15.07;12.88;;;;;;;32.36;36.18;98856.88;5028096;28;20092;-84
2022/06/22 11:55:44;;;;;;;16.95;11.57;;;;;;;32.13;36.49;98840.06;5021829;28;20535;-85
2022/06/22 11:58:25;;;;;;;17.65;13.40;;;;;;;32.06;36.69;98842.53;5028855;28;20026;-85
2022/06/22 12:00:59;;;;;;;12.98;11.02;;;;;;;32.02;37.21;98866.19;5031574;28;20113;-84
2022/06/22 12:03:40;;;;;;;12.90;11.65;;;;;;;31.99;37.81;98866.06;5019534;28;20030;-83
2022/06/22 12:06:20;;;;;;;15.70;11.23;;;;;;;31.93;38.23;98855.31;5020529;28;20121;-84
2022/06/22 12:09:04;;;;;;;12.43;11.13;;;;;;;32.19;37.40;98843.38;5013345;28;20530;-85
2022/06/22 12:11:32;;;;;;;15.70;11.73;;;;;;;32.79;36.82;98837.25;5020557;28;20037;-85
2022/06/22 12:17:08;;;;;;;14.30;12.20;;;;;;;33.52;34.35;98786.31;5018653;28;20446;-85
2022/06/22 12:19:42;;;;;;;15.77;11.32;;;;;;;33.75;34.53;98831.97;5021787;28;20498;-85
2022/06/22 12:22:15;;;;;;;12.30;11.00;;;;;;;33.79;34.48;98838.34;5010795;28;20109;-85
2022/06/22 12:25:10;;;;;;;12.45;10.95;;;;;;;33.79;34.52;98840.28;5013523;28;20033;-85
2022/06/22 12:27:41;;;;;;;13.40;10.88;;;;;;;33.35;34.02;98766.28;5013645;28;20037;-84
2022/06/22 12:30:22;;;;;;;19.27;16.17;;;;;;;33.84;34.16;98782.53;5021594;28;20576;-85
2022/06/22 12:33:03;;;;;;;15.80;14.15;;;;;;;34.48;33.53;98822.59;5033627;28;20521;-85
2022/06/22 12:35:39;;;;;;;16.00;12.70;;;;;;;34.82;32.99;98812.88;5025443;28;20030;-85